Flight Track Log - Related Links

Times and Time Zones

All times are in EDT time to prevent confusion due to time zone crossing. See the SKW5442 flight status page for this flight to view local times or setup timezone preferences in your user account.

Time Position Orientation Groundspeed Altitude Reporting Facility
EDT Latitude Longitude Course Direction KTS MPH feet Rate Location/Type
Wed 09:36:32 PM 50.7136 -104.9822 324° Northwest  Level Estimated
Wed 09:37:32 PM 50.7931 -105.0725 324° Northwest  Level Estimated
Wed 09:38:32 PM 50.8726 -105.1630 324° Northwest  Level Estimated
Wed 09:39:32 PM 50.9520 -105.2539 324° Northwest  Level Estimated
Wed 09:40:32 PM 51.0314 -105.3451 324° Northwest  Level Estimated
Wed 09:41:32 PM 51.1106 -105.4365 324° Northwest  Level Estimated
Wed 09:42:32 PM 51.1898 -105.5284 324° Northwest  Level Estimated
Wed 09:43:32 PM 51.2690 -105.6205 324° Northwest  Level Estimated
Wed 09:44:32 PM 51.3480 -105.7129 324° Northwest  Level Estimated
Wed 09:45:32 PM 51.4270 -105.8056 324° Northwest  Level Estimated
Wed 09:46:32 PM 51.5059 -105.8987 324° Northwest  Level Estimated
Wed 09:47:32 PM 51.5847 -105.9921 324° Northwest  Level Estimated
Wed 09:48:32 PM 51.6635 -106.0858 324° Northwest  Level Estimated
Wed 09:49:32 PM 51.7421 -106.1799 323° Northwest  Level Estimated
Wed 09:50:32 PM 51.8208 -106.2742 323° Northwest  Level Estimated
Wed 09:51:32 PM 51.8993 -106.3689 323° Northwest  Level Estimated
Wed 09:52:32 PM 51.9777 -106.4640 323° Northwest  Level Estimated
Wed 09:53:32 PM 52.0561 -106.5594 323° Northwest  Level Estimated
Wed 09:54:32 PM 52.1344 -106.6551 323° Northwest  Level Estimated
Wed 09:55:32 PM 52.2126 -106.7511 143° Southeast  Level Estimated
Wed 09:56:32 PM 52.1344 -106.6551 323° Northwest  Level Estimated
Wed 09:57:32 PM 52.2126 -106.7511 143° Southeast  Level Estimated
Wed 09:58:32 PM 52.1344 -106.6551 323° Northwest  Level Estimated
Wed 09:59:32 PM 52.2126 -106.7511 143° Southeast  Level Estimated
Wed 10:00:32 PM 52.1344 -106.6551 323° Northwest  Level Estimated
Wed 10:01:32 PM 52.2126 -106.7511 143° Southeast  Level Estimated
Wed 10:02:32 PM 52.1344 -106.6551 323° Northwest  Level Estimated
Wed 10:03:32 PM 52.2126 -106.7511 323° Northwest  Level Estimated

Login

Don't have an account? Register now (free) for customized features, flight alerts, and more!